Anton, CO

10:06 PM MDT on July 04, 2015 (GMT -0600)
Cope, Colorado | | Change Station
CLOSE
Current Station
Personal Weather Station
Location: Cope, CO
Elevation: 4423 ft
Nearby Weather Stations

Elev 4423 ft 39.67 °N, 102.85 °W | Updated 7 minutes ago

Clear
Clear
71.8 °F
Feels Like 76 °F
N
0.0
Wind Variable Wind from SSW

Today
High -- | Low -- °F
--% Chance of Precip.
Yesterday
High -- | Low -- °F
Precip. -- in
5:30 AM 8:24 PM
Waning Gibbous, 88% visible
Pressure 29.76 in
Visibility 10.0 miles
Clouds Clear
Heat Index 76 °F
Dew Point 55 °F
Humidity 56%
Rainfall 0.00 in
Snow Depth Not available.
UV 0 out of 12
Pollen 6.40 out of 12
Air Quality Not available.
Flu Activity Not available.
METAR KAKO 050353Z AUTO 17011KT 10SM CLR 22/13 A2995 RMK AO2 SLP076 T02170133

More Conditions Fewer Conditions

Pressure 29.76 in
Visibility 10.0 miles
Clouds Clear
Heat Index 76 °F
Dew Point 55 °F
Humidity 56%
Rainfall 0.00 in
Snow Depth Not available.
UV 0 out of 12
Pollen 6.40 out of 12
Air Quality Not available.
Flu Activity Not available.
METAR KAKO 050353Z AUTO 17011KT 10SM CLR 22/13 A2995 RMK AO2 SLP076 T02170133

More Conditions Fewer Conditions

Nowcast | as of 9:09 PM MDT on July 4, 2015

Isolated thunderstorms will slowly move southeast across the northeastern plains of Colorado through 11 PM. Brief moderate to heavy rain...small hail...gusty winds and dangerous cloud to ground lightning will be possible with the storms. Rainfall rates will generally be less than on quarter inch per hour.

×

10-Day Weather Forecast

×

Almanac

Astronomy

Jul. 04, 2015 Rise Set
Actual Time
Civil Twilight
Nautical Twilight
Astronomical Twilight
Moon
Length of Visible Light
Length of Day
Tomorrow will be .
, % of the Moon is Illuminated

Today's Extremes

State Highs State Lows

Community

WunderPhotos

Upload Photos

1,835,196 photos uploaded!

WunderBlogs® & News

Nearby

Air Quality

  Air Quality AQ Index Pollutant
Not available.

Snow Depth

Station Depth Elevation

Earthquake Activity

City Distance Mag. Time & Date
Minimum magnitude displayed is 2.5.

Coastal Water Temperatures

Place Temperature

Stations

Nearby Weather Stations

Station Location Temp. Windchill Dew Point Humidity Wind Precip. Elev Updated Type